Oklahoma City, OK (73104)

3:26 AM CDT on September 21, 2014 (GMT -0500)
Downtown | Change Station
CLOSE
Current Station
Personal Weather Station
Location: Oklahoma City, OK
Elevation: 1220 ft
Nearby Weather Stations

Elev 1220 ft 35.46 °N, 97.51 °W | Updated 1 second ago

Clear
Clear
73.7 °F
Feels Like 74 °F
N
2.0
Wind Variable Wind from South
Gusts 5.0 mph

Today
High -- | Low -- °F
--% Chance of Precip.
Yesterday
High -- | Low -- °F
Precip. -- in
7:17 AM 7:28 PM
Waning Crescent, 8% visible
Pressure 30.05 in
Visibility 10.0 miles
Clouds Clear
Heat Index 74 °F
Dew Point 67 °F
Humidity 79%
Rainfall 0.00 in
Snow Depth Not available.
UV 0 out of 12
Pollen 9.80 out of 12
Ozone Good
PM2.5 Good
Flu Activity Not available.
METAR KTIK 210758Z AUTO 17007KT 10SM CLR 21/19 A3006 RMK AO2 SLP174 T02130191 $

More Conditions Fewer Conditions

Pressure 30.05 in
Visibility 10.0 miles
Clouds Clear
Heat Index 74 °F
Dew Point 67 °F
Humidity 79%
Rainfall 0.00 in
Snow Depth Not available.
UV 0 out of 12
Pollen 9.80 out of 12
Ozone Good
PM2.5 Good
Flu Activity Not available.
METAR KTIK 210758Z AUTO 17007KT 10SM CLR 21/19 A3006 RMK AO2 SLP174 T02130191 $

More Conditions Fewer Conditions

10-Day Weather Forecast

Almanac

Astronomy

Sep. 21, 2014 Rise Set
Actual Time 7:17 AM CDT 7:28 PM CDT
Civil Twilight 6:51 AM CDT 7:53 PM CDT
Nautical Twilight 6:22 AM CDT 8:23 PM CDT
Astronomical Twilight 5:51 AM CDT 8:53 PM CDT
Moon 4:56 AM CDT 6:02 PM CDT
Length of Visible Light 13h 01m
Length of Day
12h 10m
Tomorrow will be 2m 13s shorter.
Waning Crescent, 8% of the Moon is Illuminated
Today
Waning Crescent
Sep 24
New
Oct 1
First Quarter
Oct 8
Full
Oct 15
Last Quarter

Today's Extremes

State Highs State Lows

Community

WunderPhotos

Upload Photos

1,755,101 photos uploaded!

Nearby

Air Quality

  Air Quality AQ Index Pollutant
Yesterday Good
PM2.5
Yesterday Good
OZONE
Current Good
PM2.5
Current Good
OZONE
Sunday Good
PM2.5
Sunday Good
OZONE
Monday Good
OZONE
Monday Good
PM2.5
Tuesday Good
OZONE
Tuesday Good
PM2.5
Wednesday Good
OZONE
Wednesday Good
PM2.5

Snow Depth

Station Depth Elevation
No new snow has been reported.

Earthquake Activity

City Distance Mag. Time & Date
Medford, Oklahoma 93 miles 3.2 2:10 AM CDT
2014-09-20
Luther, Oklahoma 26 miles 2.7 4:47 PM CDT
2014-09-19
Guthrie, Oklahoma 24 miles 3.6 12:23 PM CDT
2014-09-19
Jones, Oklahoma 14 miles 2.8 1:13 AM CDT
2014-09-19
Minimum magnitude displayed is 2.5.

Coastal Water Temperatures

Place Temperature
No Stations Reporting

Nearby Weather Stations